sensor_id;sensor_type;location;lat;lon;timestamp;temperature;humidity
36556;DHT22;40859;50.560;7.268;2022-07-12T00:01:53;22.80;99.90
36556;DHT22;40859;50.560;7.268;2022-07-12T00:04:19;22.80;99.90
36556;DHT22;40859;50.560;7.268;2022-07-12T00:06:45;22.80;99.90
36556;DHT22;40859;50.560;7.268;2022-07-12T00:09:11;22.80;99.90
36556;DHT22;40859;50.560;7.268;2022-07-12T00:11:37;22.80;99.90
36556;DHT22;40859;50.560;7.268;2022-07-12T00:14:05;22.80;99.90
36556;DHT22;40859;50.560;7.268;2022-07-12T00:16:31;22.80;99.90
36556;DHT22;40859;50.560;7.268;2022-07-12T00:18:57;22.80;99.90
36556;DHT22;40859;50.560;7.268;2022-07-12T00:21:23;22.80;99.90
36556;DHT22;40859;50.560;7.268;2022-07-12T00:23:49;22.80;99.90
36556;DHT22;40859;50.560;7.268;2022-07-12T00:26:14;22.80;99.90
36556;DHT22;40859;50.560;7.268;2022-07-12T00:28:41;22.80;99.90
36556;DHT22;40859;50.560;7.268;2022-07-12T00:31:06;22.80;99.90
36556;DHT22;40859;50.560;7.268;2022-07-12T00:33:32;22.80;99.90
36556;DHT22;40859;50.560;7.268;2022-07-12T00:35:58;22.80;99.90
36556;DHT22;40859;50.560;7.268;2022-07-12T00:38:24;22.80;99.90
36556;DHT22;40859;50.560;7.268;2022-07-12T00:40:50;22.80;99.90
36556;DHT22;40859;50.560;7.268;2022-07-12T00:43:16;22.80;99.90
36556;DHT22;40859;50.560;7.268;2022-07-12T00:45:43;22.80;99.90
36556;DHT22;40859;50.560;7.268;2022-07-12T00:48:09;22.70;99.90
36556;DHT22;40859;50.560;7.268;2022-07-12T00:50:36;22.70;99.90
36556;DHT22;40859;50.560;7.268;2022-07-12T00:53:02;22.70;99.90
36556;DHT22;40859;50.560;7.268;2022-07-12T00:55:29;22.70;99.90
36556;DHT22;40859;50.560;7.268;2022-07-12T00:57:55;22.70;99.90
36556;DHT22;40859;50.560;7.268;2022-07-12T01:00:26;22.70;99.90
36556;DHT22;40859;50.560;7.268;2022-07-12T01:02:54;22.70;99.90
36556;DHT22;40859;50.560;7.268;2022-07-12T01:05:20;22.70;99.90
36556;DHT22;40859;50.560;7.268;2022-07-12T01:07:46;22.70;99.90
36556;DHT22;40859;50.560;7.268;2022-07-12T01:10:12;22.70;99.90
36556;DHT22;40859;50.560;7.268;2022-07-12T01:12:38;22.70;99.90
36556;DHT22;40859;50.560;7.268;2022-07-12T01:15:08;22.70;99.90
36556;DHT22;40859;50.560;7.268;2022-07-12T01:17:34;22.70;99.90
36556;DHT22;40859;50.560;7.268;2022-07-12T01:20:00;22.70;99.90
36556;DHT22;40859;50.560;7.268;2022-07-12T01:22:31;22.60;99.90
36556;DHT22;40859;50.560;7.268;2022-07-12T01:24:58;22.60;99.90
36556;DHT22;40859;50.560;7.268;2022-07-12T01:27:24;22.60;99.90
36556;DHT22;40859;50.560;7.268;2022-07-12T01:29:50;22.60;99.90
36556;DHT22;40859;50.560;7.268;2022-07-12T01:32:16;22.60;99.90
36556;DHT22;40859;50.560;7.268;2022-07-12T01:35:03;22.60;99.90
36556;DHT22;40859;50.560;7.268;2022-07-12T01:37:34;22.60;99.90
36556;DHT22;40859;50.560;7.268;2022-07-12T01:40:03;22.60;99.90
36556;DHT22;40859;50.560;7.268;2022-07-12T01:42:29;22.60;99.90
36556;DHT22;40859;50.560;7.268;2022-07-12T01:44:56;22.60;99.90
36556;DHT22;40859;50.560;7.268;2022-07-12T01:47:29;22.60;99.90
36556;DHT22;40859;50.560;7.268;2022-07-12T01:49:55;22.60;99.90
36556;DHT22;40859;50.560;7.268;2022-07-12T01:52:22;22.60;99.90
36556;DHT22;40859;50.560;7.268;2022-07-12T01:54:48;22.60;99.90
36556;DHT22;40859;50.560;7.268;2022-07-12T01:57:15;22.60;99.90
36556;DHT22;40859;50.560;7.268;2022-07-12T01:59:42;22.60;99.90
36556;DHT22;40859;50.560;7.268;2022-07-12T02:02:08;22.60;99.90
36556;DHT22;40859;50.560;7.268;2022-07-12T02:04:35;22.60;99.90
36556;DHT22;40859;50.560;7.268;2022-07-12T02:07:01;22.60;99.90
36556;DHT22;40859;50.560;7.268;2022-07-12T02:09:27;22.60;99.90
36556;DHT22;40859;50.560;7.268;2022-07-12T02:11:53;22.60;99.90
36556;DHT22;40859;50.560;7.268;2022-07-12T02:14:21;22.60;99.90
36556;DHT22;40859;50.560;7.268;2022-07-12T02:17:03;22.60;99.90
36556;DHT22;40859;50.560;7.268;2022-07-12T02:19:30;22.60;99.90
36556;DHT22;40859;50.560;7.268;2022-07-12T02:21:56;22.60;99.90
36556;DHT22;40859;50.560;7.268;2022-07-12T02:24:22;22.60;99.90
36556;DHT22;40859;50.560;7.268;2022-07-12T02:26:48;22.60;99.90
36556;DHT22;40859;50.560;7.268;2022-07-12T02:29:14;22.60;99.90
36556;DHT22;40859;50.560;7.268;2022-07-12T02:31:40;22.60;99.90
36556;DHT22;40859;50.560;7.268;2022-07-12T02:34:05;22.50;99.90
36556;DHT22;40859;50.560;7.268;2022-07-12T02:36:31;22.50;99.90
36556;DHT22;40859;50.560;7.268;2022-07-12T02:38:59;22.50;99.90
36556;DHT22;40859;50.560;7.268;2022-07-12T02:41:28;22.50;99.90
36556;DHT22;40859;50.560;7.268;2022-07-12T02:43:55;22.40;99.90
36556;DHT22;40859;50.560;7.268;2022-07-12T02:46:21;22.40;99.90
36556;DHT22;40859;50.560;7.268;2022-07-12T02:48:47;22.40;99.90
36556;DHT22;40859;50.560;7.268;2022-07-12T02:51:13;22.40;99.90
36556;DHT22;40859;50.560;7.268;2022-07-12T02:53:39;22.40;99.90
36556;DHT22;40859;50.560;7.268;2022-07-12T02:56:05;22.40;99.90
36556;DHT22;40859;50.560;7.268;2022-07-12T02:58:31;22.40;99.90
36556;DHT22;40859;50.560;7.268;2022-07-12T03:00:57;22.40;99.90
36556;DHT22;40859;50.560;7.268;2022-07-12T03:03:23;22.40;99.90
36556;DHT22;40859;50.560;7.268;2022-07-12T03:05:49;22.50;99.90
36556;DHT22;40859;50.560;7.268;2022-07-12T03:08:15;22.40;99.90
36556;DHT22;40859;50.560;7.268;2022-07-12T03:10:41;22.40;99.90
36556;DHT22;40859;50.560;7.268;2022-07-12T03:13:07;22.40;99.90
36556;DHT22;40859;50.560;7.268;2022-07-12T03:15:33;22.40;99.90
36556;DHT22;40859;50.560;7.268;2022-07-12T03:18:00;22.40;99.90
36556;DHT22;40859;50.560;7.268;2022-07-12T03:20:32;22.40;99.90
36556;DHT22;40859;50.560;7.268;2022-07-12T03:22:58;22.40;99.90
36556;DHT22;40859;50.560;7.268;2022-07-12T03:25:24;22.40;99.90
36556;DHT22;40859;50.560;7.268;2022-07-12T03:27:50;22.40;99.90
36556;DHT22;40859;50.560;7.268;2022-07-12T03:30:16;22.50;99.90
36556;DHT22;40859;50.560;7.268;2022-07-12T03:32:42;22.40;99.90
36556;DHT22;40859;50.560;7.268;2022-07-12T03:35:08;22.50;99.90
36556;DHT22;40859;50.560;7.268;2022-07-12T03:37:48;22.50;99.90
36556;DHT22;40859;50.560;7.268;2022-07-12T03:40:16;22.50;99.90
36556;DHT22;40859;50.560;7.268;2022-07-12T03:42:42;22.50;99.90
36556;DHT22;40859;50.560;7.268;2022-07-12T03:45:09;22.50;99.90
36556;DHT22;40859;50.560;7.268;2022-07-12T03:47:35;22.40;99.90
36556;DHT22;40859;50.560;7.268;2022-07-12T03:50:04;22.50;99.90
36556;DHT22;40859;50.560;7.268;2022-07-12T03:52:34;22.50;99.90
36556;DHT22;40859;50.560;7.268;2022-07-12T03:55:01;22.50;99.90
36556;DHT22;40859;50.560;7.268;2022-07-12T03:57:28;22.50;99.90
36556;DHT22;40859;50.560;7.268;2022-07-12T03:59:55;22.50;99.90
36556;DHT22;40859;50.560;7.268;2022-07-12T04:02:21;22.50;99.90
36556;DHT22;40859;50.560;7.268;2022-07-12T04:04:47;22.50;99.90
36556;DHT22;40859;50.560;7.268;2022-07-12T04:07:13;22.50;99.90
36556;DHT22;40859;50.560;7.268;2022-07-12T04:09:39;22.50;99.90
36556;DHT22;40859;50.560;7.268;2022-07-12T04:12:05;22.50;99.90
36556;DHT22;40859;50.560;7.268;2022-07-12T04:14:31;22.40;99.90
36556;DHT22;40859;50.560;7.268;2022-07-12T04:16:57;22.50;99.90
36556;DHT22;40859;50.560;7.268;2022-07-12T04:19:23;22.50;99.90
36556;DHT22;40859;50.560;7.268;2022-07-12T04:21:53;22.50;99.90
36556;DHT22;40859;50.560;7.268;2022-07-12T04:24:21;22.40;99.90
36556;DHT22;40859;50.560;7.268;2022-07-12T04:26:47;22.40;99.90
36556;DHT22;40859;50.560;7.268;2022-07-12T04:29:17;22.40;99.90
36556;DHT22;40859;50.560;7.268;2022-07-12T04:31:44;22.40;99.90
36556;DHT22;40859;50.560;7.268;2022-07-12T04:34:10;22.50;99.90
36556;DHT22;40859;50.560;7.268;2022-07-12T04:36:36;22.40;99.90
36556;DHT22;40859;50.560;7.268;2022-07-12T04:39:02;22.40;99.90
36556;DHT22;40859;50.560;7.268;2022-07-12T04:41:28;22.40;99.90
36556;DHT22;40859;50.560;7.268;2022-07-12T04:43:54;22.40;99.90
36556;DHT22;40859;50.560;7.268;2022-07-12T04:46:20;22.40;99.90
36556;DHT22;40859;50.560;7.268;2022-07-12T04:48:46;22.50;99.90
36556;DHT22;40859;50.560;7.268;2022-07-12T04:51:15;22.40;99.90
36556;DHT22;40859;50.560;7.268;2022-07-12T04:53:42;22.40;99.90
36556;DHT22;40859;50.560;7.268;2022-07-12T04:56:08;22.40;99.90
36556;DHT22;40859;50.560;7.268;2022-07-12T04:58:33;22.40;99.90
36556;DHT22;40859;50.560;7.268;2022-07-12T05:00:59;22.40;99.90
36556;DHT22;40859;50.560;7.268;2022-07-12T05:03:25;22.40;99.90
36556;DHT22;40859;50.560;7.268;2022-07-12T05:05:54;22.50;99.90
36556;DHT22;40859;50.560;7.268;2022-07-12T05:08:20;22.40;99.90
36556;DHT22;40859;50.560;7.268;2022-07-12T05:10:46;22.40;99.90
36556;DHT22;40859;50.560;7.268;2022-07-12T05:13:12;22.40;99.90
36556;DHT22;40859;50.560;7.268;2022-07-12T05:15:38;22.40;99.90
36556;DHT22;40859;50.560;7.268;2022-07-12T05:18:04;22.40;99.90
36556;DHT22;40859;50.560;7.268;2022-07-12T05:20:30;22.40;99.90
36556;DHT22;40859;50.560;7.268;2022-07-12T05:22:56;22.40;99.90
36556;DHT22;40859;50.560;7.268;2022-07-12T05:25:22;22.40;99.90
36556;DHT22;40859;50.560;7.268;2022-07-12T05:27:48;22.50;99.90
36556;DHT22;40859;50.560;7.268;2022-07-12T05:30:14;22.40;99.90
36556;DHT22;40859;50.560;7.268;2022-07-12T05:32:39;22.50;99.90
36556;DHT22;40859;50.560;7.268;2022-07-12T05:35:06;22.40;99.90
36556;DHT22;40859;50.560;7.268;2022-07-12T05:37:34;22.40;99.90
36556;DHT22;40859;50.560;7.268;2022-07-12T05:39:59;22.40;99.90
36556;DHT22;40859;50.560;7.268;2022-07-12T05:42:25;22.30;99.90
36556;DHT22;40859;50.560;7.268;2022-07-12T05:44:51;22.30;99.90
36556;DHT22;40859;50.560;7.268;2022-07-12T05:47:19;22.20;99.90
36556;DHT22;40859;50.560;7.268;2022-07-12T05:49:45;22.20;99.90
36556;DHT22;40859;50.560;7.268;2022-07-12T05:52:11;22.20;99.90
36556;DHT22;40859;50.560;7.268;2022-07-12T05:54:56;22.20;99.90
36556;DHT22;40859;50.560;7.268;2022-07-12T05:57:24;22.20;99.90
36556;DHT22;40859;50.560;7.268;2022-07-12T05:59:50;22.20;99.90
36556;DHT22;40859;50.560;7.268;2022-07-12T06:02:16;22.20;99.90
36556;DHT22;40859;50.560;7.268;2022-07-12T06:04:42;22.10;99.90
36556;DHT22;40859;50.560;7.268;2022-07-12T06:07:08;22.10;99.90
36556;DHT22;40859;50.560;7.268;2022-07-12T06:09:35;22.10;99.90
36556;DHT22;40859;50.560;7.268;2022-07-12T06:12:00;22.10;99.90
36556;DHT22;40859;50.560;7.268;2022-07-12T06:14:26;22.20;99.90
36556;DHT22;40859;50.560;7.268;2022-07-12T06:16:52;22.10;99.90
36556;DHT22;40859;50.560;7.268;2022-07-12T06:19:18;22.10;99.90
36556;DHT22;40859;50.560;7.268;2022-07-12T06:21:44;22.10;99.90
36556;DHT22;40859;50.560;7.268;2022-07-12T06:24:10;22.10;99.90
36556;DHT22;40859;50.560;7.268;2022-07-12T06:26:36;22.10;99.90
36556;DHT22;40859;50.560;7.268;2022-07-12T06:29:02;22.10;99.90
36556;DHT22;40859;50.560;7.268;2022-07-12T06:31:28;22.10;99.90
36556;DHT22;40859;50.560;7.268;2022-07-12T06:33:54;22.10;99.90
36556;DHT22;40859;50.560;7.268;2022-07-12T06:36:20;22.10;99.90
36556;DHT22;40859;50.560;7.268;2022-07-12T06:38:45;22.10;99.90
36556;DHT22;40859;50.560;7.268;2022-07-12T06:41:11;22.10;99.90
36556;DHT22;40859;50.560;7.268;2022-07-12T06:43:37;22.10;99.90
36556;DHT22;40859;50.560;7.268;2022-07-12T06:46:03;22.10;99.90
36556;DHT22;40859;50.560;7.268;2022-07-12T06:48:29;22.10;99.90
36556;DHT22;40859;50.560;7.268;2022-07-12T06:50:55;22.10;99.90
36556;DHT22;40859;50.560;7.268;2022-07-12T06:53:21;22.10;99.90
36556;DHT22;40859;50.560;7.268;2022-07-12T06:55:47;22.10;99.90
36556;DHT22;40859;50.560;7.268;2022-07-12T06:58:13;22.10;99.90
36556;DHT22;40859;50.560;7.268;2022-07-12T07:00:39;22.10;99.90
36556;DHT22;40859;50.560;7.268;2022-07-12T07:03:07;22.10;99.90
36556;DHT22;40859;50.560;7.268;2022-07-12T07:05:33;22.10;99.90
36556;DHT22;40859;50.560;7.268;2022-07-12T07:07:59;22.10;99.90
36556;DHT22;40859;50.560;7.268;2022-07-12T07:10:24;22.10;99.90
36556;DHT22;40859;50.560;7.268;2022-07-12T07:12:50;22.10;99.90
36556;DHT22;40859;50.560;7.268;2022-07-12T07:15:17;22.10;99.90
36556;DHT22;40859;50.560;7.268;2022-07-12T07:17:46;22.10;99.90
36556;DHT22;40859;50.560;7.268;2022-07-12T07:20:12;22.10;99.90
36556;DHT22;40859;50.560;7.268;2022-07-12T07:22:39;22.10;99.90
36556;DHT22;40859;50.560;7.268;2022-07-12T07:25:07;22.10;99.90
36556;DHT22;40859;50.560;7.268;2022-07-12T07:27:36;22.10;99.90
36556;DHT22;40859;50.560;7.268;2022-07-12T07:30:04;22.10;99.90
36556;DHT22;40859;50.560;7.268;2022-07-12T07:32:50;22.10;99.90
36556;DHT22;40859;50.560;7.268;2022-07-12T07:35:16;22.10;99.90
36556;DHT22;40859;50.560;7.268;2022-07-12T07:37:42;22.10;99.90
36556;DHT22;40859;50.560;7.268;2022-07-12T07:40:09;22.10;99.90
36556;DHT22;40859;50.560;7.268;2022-07-12T07:42:35;22.10;99.90
36556;DHT22;40859;50.560;7.268;2022-07-12T07:45:03;22.10;99.90
36556;DHT22;40859;50.560;7.268;2022-07-12T07:47:41;22.10;99.90
36556;DHT22;40859;50.560;7.268;2022-07-12T07:50:07;22.10;99.90
36556;DHT22;40859;50.560;7.268;2022-07-12T07:52:33;22.10;99.90
36556;DHT22;40859;50.560;7.268;2022-07-12T07:54:59;22.10;99.90
36556;DHT22;40859;50.560;7.268;2022-07-12T07:57:25;22.10;99.90
36556;DHT22;40859;50.560;7.268;2022-07-12T07:59:51;22.20;99.90
36556;DHT22;40859;50.560;7.268;2022-07-12T08:02:17;22.10;99.90
36556;DHT22;40859;50.560;7.268;2022-07-12T08:04:44;22.20;99.90
36556;DHT22;40859;50.560;7.268;2022-07-12T08:07:10;22.10;99.90
36556;DHT22;40859;50.560;7.268;2022-07-12T08:09:37;22.10;99.90
36556;DHT22;40859;50.560;7.268;2022-07-12T08:12:04;22.10;99.90
36556;DHT22;40859;50.560;7.268;2022-07-12T08:14:30;22.10;99.90
36556;DHT22;40859;50.560;7.268;2022-07-12T08:16:56;22.10;99.90
36556;DHT22;40859;50.560;7.268;2022-07-12T08:19:22;22.20;99.90
36556;DHT22;40859;50.560;7.268;2022-07-12T08:21:48;22.20;99.90
36556;DHT22;40859;50.560;7.268;2022-07-12T08:24:14;22.20;99.90
36556;DHT22;40859;50.560;7.268;2022-07-12T08:26:40;22.20;99.90
36556;DHT22;40859;50.560;7.268;2022-07-12T08:29:06;22.20;99.90
36556;DHT22;40859;50.560;7.268;2022-07-12T08:31:32;22.20;99.90
36556;DHT22;40859;50.560;7.268;2022-07-12T08:33:58;22.10;99.90
36556;DHT22;40859;50.560;7.268;2022-07-12T08:36:25;22.20;99.90
36556;DHT22;40859;50.560;7.268;2022-07-12T08:38:51;22.20;99.90
36556;DHT22;40859;50.560;7.268;2022-07-12T08:41:17;22.20;99.90
36556;DHT22;40859;50.560;7.268;2022-07-12T08:43:44;22.20;99.90
36556;DHT22;40859;50.560;7.268;2022-07-12T08:46:12;22.20;99.90
36556;DHT22;40859;50.560;7.268;2022-07-12T08:48:40;22.20;99.90
36556;DHT22;40859;50.560;7.268;2022-07-12T08:51:08;22.20;99.90
36556;DHT22;40859;50.560;7.268;2022-07-12T08:54:04;22.20;99.90
36556;DHT22;40859;50.560;7.268;2022-07-12T08:56:33;22.20;99.90
36556;DHT22;40859;50.560;7.268;2022-07-12T09:00:00;22.20;99.90
36556;DHT22;40859;50.560;7.268;2022-07-12T09:02:26;22.20;99.90
36556;DHT22;40859;50.560;7.268;2022-07-12T09:05:08;22.20;99.90
36556;DHT22;40859;50.560;7.268;2022-07-12T09:07:37;22.20;99.90
36556;DHT22;40859;50.560;7.268;2022-07-12T09:10:09;22.20;99.90
36556;DHT22;40859;50.560;7.268;2022-07-12T09:12:36;22.20;99.90
36556;DHT22;40859;50.560;7.268;2022-07-12T09:15:16;22.30;99.90
36556;DHT22;40859;50.560;7.268;2022-07-12T14:23:05;23.20;99.90
36556;DHT22;40859;50.560;7.268;2022-07-12T14:25:38;23.20;99.90
36556;DHT22;40859;50.560;7.268;2022-07-12T14:28:03;23.20;99.90
36556;DHT22;40859;50.560;7.268;2022-07-12T14:30:29;23.20;99.90
36556;DHT22;40859;50.560;7.268;2022-07-12T14:32:55;23.30;99.90
36556;DHT22;40859;50.560;7.268;2022-07-12T14:35:21;23.20;99.90
36556;DHT22;40859;50.560;7.268;2022-07-12T14:37:46;23.20;99.90
36556;DHT22;40859;50.560;7.268;2022-07-12T14:40:12;23.30;99.90
36556;DHT22;40859;50.560;7.268;2022-07-12T14:42:38;23.30;99.90
36556;DHT22;40859;50.560;7.268;2022-07-12T14:45:05;23.30;99.90
36556;DHT22;40859;50.560;7.268;2022-07-12T14:47:32;23.30;99.90
36556;DHT22;40859;50.560;7.268;2022-07-12T14:49:58;23.30;99.90
36556;DHT22;40859;50.560;7.268;2022-07-12T14:52:26;23.30;99.90
36556;DHT22;40859;50.560;7.268;2022-07-12T14:54:51;23.30;99.90
36556;DHT22;40859;50.560;7.268;2022-07-12T14:57:17;23.30;99.90
36556;DHT22;40859;50.560;7.268;2022-07-12T14:59:43;23.30;99.90
36556;DHT22;40859;50.560;7.268;2022-07-12T15:02:09;23.30;99.90
36556;DHT22;40859;50.560;7.268;2022-07-12T15:04:34;23.30;99.90
36556;DHT22;40859;50.560;7.268;2022-07-12T15:07:00;23.40;99.90
36556;DHT22;40859;50.560;7.268;2022-07-12T15:09:26;23.40;99.90
36556;DHT22;40859;50.560;7.268;2022-07-12T15:11:51;23.40;99.90
36556;DHT22;40859;50.560;7.268;2022-07-12T15:14:17;23.40;99.90
36556;DHT22;40859;50.560;7.268;2022-07-12T15:16:43;23.40;99.90
36556;DHT22;40859;50.560;7.268;2022-07-12T15:19:08;23.40;99.90
36556;DHT22;40859;50.560;7.268;2022-07-12T15:21:34;23.40;99.90
36556;DHT22;40859;50.560;7.268;2022-07-12T15:24:00;23.40;99.90
36556;DHT22;40859;50.560;7.268;2022-07-12T15:26:26;23.40;99.90
36556;DHT22;40859;50.560;7.268;2022-07-12T15:28:58;23.50;99.90
36556;DHT22;40859;50.560;7.268;2022-07-12T15:31:24;23.40;99.90
36556;DHT22;40859;50.560;7.268;2022-07-12T15:33:50;23.50;99.90
36556;DHT22;40859;50.560;7.268;2022-07-12T15:36:34;23.50;99.90
36556;DHT22;40859;50.560;7.268;2022-07-12T15:39:00;23.50;99.90
36556;DHT22;40859;50.560;7.268;2022-07-12T15:41:27;23.50;99.90
36556;DHT22;40859;50.560;7.268;2022-07-12T15:43:53;23.50;99.90
36556;DHT22;40859;50.560;7.268;2022-07-12T15:46:19;23.60;99.90
36556;DHT22;40859;50.560;7.268;2022-07-12T15:48:45;23.50;99.90
36556;DHT22;40859;50.560;7.268;2022-07-12T15:51:11;23.50;99.90
36556;DHT22;40859;50.560;7.268;2022-07-12T15:53:36;23.60;99.90
36556;DHT22;40859;50.560;7.268;2022-07-12T15:56:04;23.50;99.90
36556;DHT22;40859;50.560;7.268;2022-07-12T15:58:31;23.50;99.90
36556;DHT22;40859;50.560;7.268;2022-07-12T16:00:58;23.60;99.90
36556;DHT22;40859;50.560;7.268;2022-07-12T16:03:24;23.60;99.90
36556;DHT22;40859;50.560;7.268;2022-07-12T16:05:50;23.60;99.90
36556;DHT22;40859;50.560;7.268;2022-07-12T16:08:15;23.60;99.90
36556;DHT22;40859;50.560;7.268;2022-07-12T16:10:41;23.60;99.90
36556;DHT22;40859;50.560;7.268;2022-07-12T16:13:06;23.60;99.90
36556;DHT22;40859;50.560;7.268;2022-07-12T16:15:32;23.60;99.90
36556;DHT22;40859;50.560;7.268;2022-07-12T16:17:58;23.60;99.90
36556;DHT22;40859;50.560;7.268;2022-07-12T16:20:24;23.60;99.90
36556;DHT22;40859;50.560;7.268;2022-07-12T16:22:50;23.60;99.90
36556;DHT22;40859;50.560;7.268;2022-07-12T16:25:15;23.60;99.90
36556;DHT22;40859;50.560;7.268;2022-07-12T16:27:41;23.70;99.90
36556;DHT22;40859;50.560;7.268;2022-07-12T16:30:07;23.70;99.90
36556;DHT22;40859;50.560;7.268;2022-07-12T16:32:33;23.70;99.90
36556;DHT22;40859;50.560;7.268;2022-07-12T16:34:59;23.70;99.90
36556;DHT22;40859;50.560;7.268;2022-07-12T16:37:25;23.70;99.90
36556;DHT22;40859;50.560;7.268;2022-07-12T16:39:50;23.70;99.90
36556;DHT22;40859;50.560;7.268;2022-07-12T16:45:01;23.60;99.90
36556;DHT22;40859;50.560;7.268;2022-07-12T16:47:45;23.70;99.90
36556;DHT22;40859;50.560;7.268;2022-07-12T16:50:10;23.70;99.90
36556;DHT22;40859;50.560;7.268;2022-07-12T16:52:36;23.60;99.90
36556;DHT22;40859;50.560;7.268;2022-07-12T16:55:02;23.70;99.90
36556;DHT22;40859;50.560;7.268;2022-07-12T16:57:28;23.70;99.90
36556;DHT22;40859;50.560;7.268;2022-07-12T16:59:55;23.70;99.90
36556;DHT22;40859;50.560;7.268;2022-07-12T17:02:21;23.80;99.90
36556;DHT22;40859;50.560;7.268;2022-07-12T17:04:47;23.80;99.90
36556;DHT22;40859;50.560;7.268;2022-07-12T17:07:13;23.70;99.90
36556;DHT22;40859;50.560;7.268;2022-07-12T17:09:39;23.80;99.90
36556;DHT22;40859;50.560;7.268;2022-07-12T17:12:05;23.80;99.90
36556;DHT22;40859;50.560;7.268;2022-07-12T17:14:31;23.80;99.90
36556;DHT22;40859;50.560;7.268;2022-07-12T17:16:56;23.80;99.90
36556;DHT22;40859;50.560;7.268;2022-07-12T17:19:22;23.80;99.90
36556;DHT22;40859;50.560;7.268;2022-07-12T17:21:48;23.80;99.90
36556;DHT22;40859;50.560;7.268;2022-07-12T17:24:15;23.80;99.90
36556;DHT22;40859;50.560;7.268;2022-07-12T17:26:41;23.80;99.90
36556;DHT22;40859;50.560;7.268;2022-07-12T17:29:07;23.80;99.90
36556;DHT22;40859;50.560;7.268;2022-07-12T17:31:33;23.80;99.90
36556;DHT22;40859;50.560;7.268;2022-07-12T17:33:59;23.80;99.90
36556;DHT22;40859;50.560;7.268;2022-07-12T17:36:25;23.80;99.90
36556;DHT22;40859;50.560;7.268;2022-07-12T17:38:51;23.80;99.90
36556;DHT22;40859;50.560;7.268;2022-07-12T17:44:02;23.80;99.90
36556;DHT22;40859;50.560;7.268;2022-07-12T17:46:28;23.80;99.90
36556;DHT22;40859;50.560;7.268;2022-07-12T17:48:55;23.80;99.90
36556;DHT22;40859;50.560;7.268;2022-07-12T17:51:21;23.80;99.90
36556;DHT22;40859;50.560;7.268;2022-07-12T17:54:06;23.80;99.90
36556;DHT22;40859;50.560;7.268;2022-07-12T17:56:31;23.90;99.90
36556;DHT22;40859;50.560;7.268;2022-07-12T17:58:58;23.90;99.90
36556;DHT22;40859;50.560;7.268;2022-07-12T18:01:24;23.90;99.90
36556;DHT22;40859;50.560;7.268;2022-07-12T18:03:50;23.90;99.90
36556;DHT22;40859;50.560;7.268;2022-07-12T18:06:17;23.90;99.90
36556;DHT22;40859;50.560;7.268;2022-07-12T18:08:42;23.90;99.90
36556;DHT22;40859;50.560;7.268;2022-07-12T18:11:09;23.90;99.90
36556;DHT22;40859;50.560;7.268;2022-07-12T18:13:54;23.90;99.90
36556;DHT22;40859;50.560;7.268;2022-07-12T18:16:38;23.90;99.90
36556;DHT22;40859;50.560;7.268;2022-07-12T18:19:04;23.90;99.90
36556;DHT22;40859;50.560;7.268;2022-07-12T18:21:29;23.90;99.90
36556;DHT22;40859;50.560;7.268;2022-07-12T18:26:39;23.90;99.90
36556;DHT22;40859;50.560;7.268;2022-07-12T18:29:04;23.90;99.90
36556;DHT22;40859;50.560;7.268;2022-07-12T18:31:30;23.90;99.90
36556;DHT22;40859;50.560;7.268;2022-07-12T18:33:56;23.90;99.90
36556;DHT22;40859;50.560;7.268;2022-07-12T18:36:22;23.90;99.90
36556;DHT22;40859;50.560;7.268;2022-07-12T18:41:32;23.90;99.90
36556;DHT22;40859;50.560;7.268;2022-07-12T18:43:57;24.00;99.90
36556;DHT22;40859;50.560;7.268;2022-07-12T18:46:23;24.00;99.90
36556;DHT22;40859;50.560;7.268;2022-07-12T18:48:48;24.00;99.90
36556;DHT22;40859;50.560;7.268;2022-07-12T18:51:14;24.00;99.90
36556;DHT22;40859;50.560;7.268;2022-07-12T18:53:40;24.00;99.90
36556;DHT22;40859;50.560;7.268;2022-07-12T18:56:06;24.00;99.90
36556;DHT22;40859;50.560;7.268;2022-07-12T18:58:31;24.00;99.90
36556;DHT22;40859;50.560;7.268;2022-07-12T19:00:58;24.00;99.90
36556;DHT22;40859;50.560;7.268;2022-07-12T19:03:23;24.00;99.90
36556;DHT22;40859;50.560;7.268;2022-07-12T19:05:49;24.00;99.90
36556;DHT22;40859;50.560;7.268;2022-07-12T19:08:15;24.00;99.90
36556;DHT22;40859;50.560;7.268;2022-07-12T19:10:41;24.00;99.90
36556;DHT22;40859;50.560;7.268;2022-07-12T19:13:07;24.00;99.90
36556;DHT22;40859;50.560;7.268;2022-07-12T19:15:32;24.00;99.90
36556;DHT22;40859;50.560;7.268;2022-07-12T19:17:58;24.00;99.90
36556;DHT22;40859;50.560;7.268;2022-07-12T19:20:24;23.90;99.90
36556;DHT22;40859;50.560;7.268;2022-07-12T19:22:49;23.90;99.90
36556;DHT22;40859;50.560;7.268;2022-07-12T19:25:15;23.90;99.90
36556;DHT22;40859;50.560;7.268;2022-07-12T19:27:40;24.00;99.90
36556;DHT22;40859;50.560;7.268;2022-07-12T19:30:06;24.00;99.90
36556;DHT22;40859;50.560;7.268;2022-07-12T19:32:32;24.00;99.90
36556;DHT22;40859;50.560;7.268;2022-07-12T19:34:58;24.00;99.90
36556;DHT22;40859;50.560;7.268;2022-07-12T19:37:23;23.90;99.90
36556;DHT22;40859;50.560;7.268;2022-07-12T19:39:49;24.00;99.90
36556;DHT22;40859;50.560;7.268;2022-07-12T19:42:16;24.00;99.90
36556;DHT22;40859;50.560;7.268;2022-07-12T19:44:41;24.00;99.90
36556;DHT22;40859;50.560;7.268;2022-07-12T19:47:07;24.00;99.90
36556;DHT22;40859;50.560;7.268;2022-07-12T19:49:33;24.00;99.90
36556;DHT22;40859;50.560;7.268;2022-07-12T19:51:58;23.90;99.90
36556;DHT22;40859;50.560;7.268;2022-07-12T19:54:24;23.90;99.90
36556;DHT22;40859;50.560;7.268;2022-07-12T19:56:53;23.90;99.90
36556;DHT22;40859;50.560;7.268;2022-07-12T19:59:18;24.00;99.90
36556;DHT22;40859;50.560;7.268;2022-07-12T20:01:45;23.90;99.90
36556;DHT22;40859;50.560;7.268;2022-07-12T20:04:11;23.90;99.90
36556;DHT22;40859;50.560;7.268;2022-07-12T20:06:37;23.90;99.90
36556;DHT22;40859;50.560;7.268;2022-07-12T20:09:03;24.00;99.90
36556;DHT22;40859;50.560;7.268;2022-07-12T20:11:29;23.90;99.90
36556;DHT22;40859;50.560;7.268;2022-07-12T20:13:55;23.90;99.90
36556;DHT22;40859;50.560;7.268;2022-07-12T20:16:21;23.90;99.90
36556;DHT22;40859;50.560;7.268;2022-07-12T20:18:48;23.90;99.90
36556;DHT22;40859;50.560;7.268;2022-07-12T20:23:58;23.90;99.90
36556;DHT22;40859;50.560;7.268;2022-07-12T20:26:23;24.00;99.90
36556;DHT22;40859;50.560;7.268;2022-07-12T20:28:49;24.00;99.90
36556;DHT22;40859;50.560;7.268;2022-07-12T20:31:15;24.00;99.90
36556;DHT22;40859;50.560;7.268;2022-07-12T20:33:40;24.00;99.90
36556;DHT22;40859;50.560;7.268;2022-07-12T20:36:25;24.00;99.90
36556;DHT22;40859;50.560;7.268;2022-07-12T20:38:50;24.00;99.90
36556;DHT22;40859;50.560;7.268;2022-07-12T20:41:17;24.00;99.90
36556;DHT22;40859;50.560;7.268;2022-07-12T20:43:43;24.00;99.90
36556;DHT22;40859;50.560;7.268;2022-07-12T20:46:10;24.00;99.90
36556;DHT22;40859;50.560;7.268;2022-07-12T20:48:36;24.00;99.90